createdAt,value
2019-02-27T00:01:18.894Z,5.38
2019-02-27T00:03:48.301Z,5.34
2019-02-27T00:06:17.703Z,5.29
2019-02-27T00:08:47.058Z,5.27
2019-02-27T00:11:16.645Z,5.23
2019-02-27T00:13:46.153Z,5.24
2019-02-27T00:16:15.570Z,5.20
2019-02-27T00:18:44.988Z,5.15
2019-02-27T00:21:15.287Z,5.14
2019-02-27T00:23:44.634Z,5.13
2019-02-27T00:26:13.965Z,5.07
2019-02-27T00:28:43.593Z,5.03
2019-02-27T00:31:12.918Z,5.02
2019-02-27T00:33:42.258Z,4.99
2019-02-27T00:36:12.306Z,4.97
2019-02-27T00:38:43.737Z,4.93
2019-02-27T00:41:13.115Z,4.89
2019-02-27T00:43:42.685Z,4.87
2019-02-27T00:46:13.403Z,4.82
2019-02-27T00:48:44.304Z,4.77
2019-02-27T00:51:13.988Z,4.76
2019-02-27T00:53:43.302Z,4.74
2019-02-27T00:56:12.937Z,4.72
2019-02-27T00:58:42.418Z,4.69
2019-02-27T01:01:12.658Z,4.66
2019-02-27T01:03:42.525Z,4.62
2019-02-27T01:06:14.622Z,4.58
2019-02-27T01:08:43.404Z,4.54
2019-02-27T01:11:12.731Z,4.51
2019-02-27T01:13:42.066Z,4.52
2019-02-27T01:16:11.439Z,4.46
2019-02-27T01:18:40.769Z,4.42
2019-02-27T01:21:10.108Z,4.40
2019-02-27T01:23:43.859Z,4.37
2019-02-27T01:26:10.470Z,4.37
2019-02-27T01:28:44.679Z,4.35
2019-02-27T01:31:11.093Z,4.31
2019-02-27T01:33:40.507Z,4.27
2019-02-27T01:36:10.143Z,4.26
2019-02-27T01:38:39.478Z,4.26
2019-02-27T01:41:08.816Z,4.25
2019-02-27T01:43:39.862Z,4.23
2019-02-27T01:46:09.183Z,4.19
2019-02-27T01:48:42.821Z,4.17
2019-02-27T01:51:09.545Z,4.14
2019-02-27T01:53:40.451Z,4.10
2019-02-27T01:56:10.244Z,4.06
2019-02-27T01:58:43.310Z,4.06
2019-02-27T02:01:10.689Z,4.01
2019-02-27T02:03:40.189Z,4.01
2019-02-27T02:06:09.924Z,3.99
2019-02-27T02:08:43.188Z,3.95
2019-02-27T02:11:12.525Z,3.91
2019-02-27T02:13:50.817Z,3.88
2019-02-27T02:16:28.871Z,3.86
2019-02-27T02:19:26.912Z,3.84
2019-02-27T02:22:14.273Z,3.83
2019-02-27T02:25:10.153Z,3.78
2019-02-27T02:27:57.986Z,3.76
2019-02-27T02:30:44.914Z,3.73
2019-02-27T02:33:17.540Z,3.71
2019-02-27T02:36:04.617Z,3.68
2019-02-27T02:38:53.629Z,3.64
2019-02-27T02:41:34.959Z,3.57
2019-02-27T02:44:26.799Z,3.56
2019-02-27T02:47:08.167Z,3.53
2019-02-27T02:49:49.365Z,3.52
2019-02-27T02:52:41.705Z,3.52
2019-02-27T02:55:23.380Z,3.50
2019-02-27T02:58:07.752Z,3.47
2019-02-27T03:01:13.964Z,3.41
2019-02-27T03:03:43.006Z,3.39
2019-02-27T03:06:34.582Z,3.34
2019-02-27T03:09:30.639Z,3.31
2019-02-27T03:12:21.322Z,3.27
2019-02-27T03:14:54.560Z,3.24
2019-02-27T03:17:27.081Z,3.23
2019-02-27T03:20:19.406Z,3.22
2019-02-27T03:23:09.141Z,3.21
2019-02-27T03:25:47.530Z,3.20
2019-02-27T03:28:40.580Z,3.17
2019-02-27T03:31:35.034Z,3.13
2019-02-27T03:34:25.113Z,3.13
2019-02-27T03:37:13.152Z,3.08
2019-02-27T03:39:55.765Z,3.05
2019-02-27T03:42:40.187Z,3.03
2019-02-27T03:45:32.383Z,3.01
2019-02-27T03:48:13.558Z,3.01
2019-02-27T03:50:54.975Z,3.03
2019-02-27T03:53:27.391Z,3.01
2019-02-27T03:56:16.358Z,3.00
2019-02-27T03:59:09.296Z,2.99
2019-02-27T04:02:05.876Z,2.99
2019-02-27T04:04:46.595Z,2.96
2019-02-27T04:07:43.357Z,2.94
2019-02-27T04:10:12.699Z,2.91
2019-02-27T04:12:42.073Z,2.88
2019-02-27T04:15:17.615Z,2.88
2019-02-27T04:17:41.533Z,2.89
2019-02-27T04:20:14.609Z,2.85
2019-02-27T04:22:41.961Z,2.85
2019-02-27T04:25:11.295Z,2.83
2019-02-27T04:27:43.728Z,2.81
2019-02-27T04:30:15.665Z,2.78
2019-02-27T04:32:48.688Z,2.72
2019-02-27T04:35:16.021Z,2.72
2019-02-27T04:37:45.353Z,2.71
2019-02-27T04:40:14.683Z,2.69
2019-02-27T04:42:44.016Z,2.68
2019-02-27T04:45:13.349Z,2.68
2019-02-27T04:47:42.744Z,2.66
2019-02-27T04:50:12.144Z,2.66
2019-02-27T04:52:41.484Z,2.62
2019-02-27T04:55:15.342Z,2.62
2019-02-27T04:57:41.915Z,2.60
2019-02-27T05:00:12.189Z,2.58
2019-02-27T05:02:41.533Z,2.55
2019-02-27T05:05:10.930Z,2.54
2019-02-27T05:07:41.525Z,2.53
2019-02-27T05:10:11.258Z,2.52
2019-02-27T05:12:40.600Z,2.49
2019-02-27T05:15:10.101Z,2.51
2019-02-27T05:17:39.432Z,2.49
2019-02-27T05:20:12.527Z,2.48
2019-02-27T05:22:40.345Z,2.44
2019-02-27T05:25:12.078Z,2.39
2019-02-27T05:27:41.075Z,2.39
2019-02-27T05:30:12.879Z,2.37
2019-02-27T05:32:42.631Z,2.34
2019-02-27T05:35:11.981Z,2.33
2019-02-27T05:37:41.370Z,2.31
2019-02-27T05:40:11.241Z,2.30
2019-02-27T05:42:40.568Z,2.29
2019-02-27T05:45:12.055Z,2.29
2019-02-27T05:47:44.673Z,2.27
2019-02-27T05:50:12.890Z,2.26
2019-02-27T05:52:42.223Z,2.24
2019-02-27T05:55:12.418Z,2.21
2019-02-27T05:57:41.745Z,2.21
2019-02-27T06:00:16.689Z,2.18
2019-02-27T06:02:46.039Z,2.18
2019-02-27T06:05:15.551Z,2.19
2019-02-27T06:07:45.136Z,2.17
2019-02-27T06:10:20.158Z,2.17
2019-02-27T06:12:48.992Z,2.13
2019-02-27T06:15:18.874Z,2.11
2019-02-27T06:17:49.206Z,2.10
2019-02-27T06:20:19.427Z,2.05
2019-02-27T06:22:49.730Z,2.03
2019-02-27T06:25:23.212Z,2.03
2019-02-27T06:27:50.373Z,2.02
2019-02-27T06:30:21.049Z,2.04
2019-02-27T06:32:50.647Z,2.05
2019-02-27T06:35:19.975Z,2.06
2019-02-27T06:37:50.866Z,2.05
2019-02-27T06:40:20.368Z,2.05
2019-02-27T06:42:53.427Z,2.05
2019-02-27T06:45:20.805Z,2.06
2019-02-27T06:47:50.149Z,2.05
2019-02-27T06:50:19.525Z,2.05
2019-02-27T06:52:48.848Z,2.09
2019-02-27T06:55:18.187Z,2.10
2019-02-27T06:57:47.510Z,2.11
2019-02-27T07:00:24.463Z,2.12
2019-02-27T07:02:55.458Z,2.13
2019-02-27T07:05:24.822Z,2.15
2019-02-27T07:07:54.159Z,2.19
2019-02-27T07:10:23.492Z,2.21
2019-02-27T07:12:54.682Z,2.20
2019-02-27T07:15:23.916Z,2.25
2019-02-27T07:17:53.246Z,2.28
2019-02-27T07:20:24.605Z,2.34
2019-02-27T07:22:53.964Z,2.39
2019-02-27T07:25:23.285Z,2.46
2019-02-27T07:27:52.620Z,2.53
2019-02-27T07:30:23.709Z,2.60
2019-02-27T07:32:52.987Z,2.70
2019-02-27T07:35:25.371Z,2.78
2019-02-27T07:37:53.751Z,2.86
2019-02-27T07:40:23.074Z,3.03
2019-02-27T07:42:52.405Z,3.54
2019-02-27T07:45:22.932Z,3.76
2019-02-27T07:47:52.597Z,4.28
2019-02-27T07:50:22.292Z,4.57
2019-02-27T07:52:52.251Z,5.07
2019-02-27T07:55:23.300Z,5.28
2019-02-27T07:57:52.774Z,5.69
2019-02-27T08:00:23.277Z,5.85
2019-02-27T08:02:52.956Z,6.15
2019-02-27T08:05:22.213Z,6.21
2019-02-27T08:07:51.546Z,6.38
2019-02-27T08:10:22.980Z,6.53
2019-02-27T08:12:55.530Z,6.68
2019-02-27T08:15:25.204Z,6.91
2019-02-27T08:17:57.469Z,7.08
2019-02-27T08:20:25.740Z,7.19
2019-02-27T08:22:55.064Z,7.32
2019-02-27T08:25:24.637Z,7.45
2019-02-27T08:27:54.312Z,7.53
2019-02-27T08:30:25.091Z,7.75
2019-02-27T08:32:54.497Z,7.85
2019-02-27T08:35:23.823Z,7.97
2019-02-27T08:38:01.890Z,8.05
2019-02-27T08:40:25.248Z,8.17
2019-02-27T08:42:54.906Z,8.21
2019-02-27T08:45:26.967Z,8.35
2019-02-27T08:47:55.843Z,8.46
2019-02-27T08:50:25.297Z,8.52
2019-02-27T08:52:54.626Z,8.66
2019-02-27T08:55:24.931Z,8.72
2019-02-27T08:57:56.928Z,8.80
2019-02-27T09:00:32.709Z,8.90
2019-02-27T09:03:03.037Z,9.03
2019-02-27T09:05:33.183Z,9.16
2019-02-27T09:08:02.509Z,9.25
2019-02-27T09:10:31.848Z,9.39
2019-02-27T09:13:05.363Z,9.42
2019-02-27T09:15:32.445Z,9.54
2019-02-27T09:18:02.479Z,9.60
2019-02-27T09:20:31.782Z,9.70
2019-02-27T09:23:01.354Z,9.70
2019-02-27T09:25:30.694Z,9.87
2019-02-27T09:28:00.089Z,9.92
2019-02-27T09:30:30.224Z,9.95
2019-02-27T09:32:59.632Z,10.02
2019-02-27T09:35:32.259Z,10.13
2019-02-27T09:38:00.310Z,10.25
2019-02-27T09:40:30.756Z,10.31
2019-02-27T09:43:00.085Z,10.43
2019-02-27T09:45:35.765Z,10.51
2019-02-27T09:48:05.376Z,10.50
2019-02-27T09:50:36.995Z,10.64
2019-02-27T09:53:06.336Z,10.73
2019-02-27T09:55:35.895Z,10.74
2019-02-27T09:58:09.960Z,10.81
2019-02-27T10:00:42.402Z,10.86
2019-02-27T10:03:11.942Z,10.95
2019-02-27T10:05:41.249Z,11.08
2019-02-27T10:08:12.240Z,11.14
2019-02-27T10:10:44.898Z,11.17
2019-02-27T10:13:12.682Z,11.28
2019-02-27T10:15:42.195Z,11.45
2019-02-27T10:18:11.571Z,11.51
2019-02-27T10:20:40.907Z,11.57
2019-02-27T10:23:10.220Z,11.71
2019-02-27T10:25:43.245Z,11.74
2019-02-27T10:28:10.765Z,11.91
2019-02-27T10:30:40.101Z,12.00
2019-02-27T10:33:11.119Z,12.13
2019-02-27T10:35:40.763Z,12.22
2019-02-27T10:38:10.094Z,12.39
2019-02-27T10:40:39.433Z,12.50
2019-02-27T10:43:09.173Z,12.60
2019-02-27T10:45:38.509Z,12.65
2019-02-27T10:48:07.848Z,12.80
2019-02-27T10:50:37.407Z,12.97
2019-02-27T10:53:06.754Z,13.07
2019-02-27T10:55:36.089Z,13.20
2019-02-27T10:58:07.568Z,13.40
2019-02-27T11:00:36.496Z,13.58
2019-02-27T11:03:05.901Z,13.78
2019-02-27T11:05:37.512Z,14.18
2019-02-27T11:08:06.918Z,14.54
2019-02-27T11:10:36.321Z,14.86
2019-02-27T11:13:07.052Z,15.39
2019-02-27T11:15:41.151Z,16.07
2019-02-27T11:18:07.606Z,16.64
2019-02-27T11:20:36.935Z,17.41
2019-02-27T11:23:07.090Z,18.01
2019-02-27T11:25:36.998Z,18.67
2019-02-27T11:28:06.498Z,19.41
2019-02-27T11:30:37.751Z,20.16
2019-02-27T11:33:07.220Z,20.91
2019-02-27T11:35:36.555Z,21.52
2019-02-27T11:38:05.880Z,22.13
2019-02-27T11:40:35.521Z,22.68
2019-02-27T11:43:06.970Z,23.16
2019-02-27T11:45:35.949Z,23.65
2019-02-27T11:48:05.448Z,24.18
2019-02-27T11:50:34.777Z,24.69
2019-02-27T11:53:04.173Z,25.21
2019-02-27T11:55:33.505Z,25.65
2019-02-27T11:58:05.329Z,26.00
2019-02-27T12:00:34.411Z,26.32
2019-02-27T12:03:03.809Z,26.66
2019-02-27T12:05:34.473Z,26.91
2019-02-27T12:08:04.075Z,27.24
2019-02-27T12:10:33.562Z,27.59
2019-02-27T12:13:03.138Z,27.87
2019-02-27T12:15:32.462Z,28.05
2019-02-27T12:18:01.972Z,28.18
2019-02-27T12:20:31.364Z,28.39
2019-02-27T12:23:00.701Z,28.47
2019-02-27T12:25:30.462Z,28.58
2019-02-27T12:28:01.921Z,28.73
2019-02-27T12:30:32.292Z,28.84
2019-02-27T12:33:01.699Z,28.90
2019-02-27T12:35:35.849Z,29.05
2019-02-27T12:38:08.182Z,29.13
2019-02-27T12:40:37.098Z,29.17
2019-02-27T12:43:06.430Z,29.26
2019-02-27T12:45:35.826Z,29.38
2019-02-27T12:48:05.239Z,29.59
2019-02-27T12:50:34.849Z,29.72
2019-02-27T12:53:04.713Z,29.93
2019-02-27T12:55:36.253Z,30.04
2019-02-27T12:58:05.079Z,30.31
2019-02-27T13:00:35.949Z,30.49
2019-02-27T13:03:08.461Z,30.60
2019-02-27T13:05:36.486Z,30.73
2019-02-27T13:08:06.214Z,30.78
2019-02-27T13:10:35.551Z,30.89
2019-02-27T13:13:04.923Z,31.03
2019-02-27T13:15:34.262Z,31.30
2019-02-27T13:18:03.826Z,31.54
2019-02-27T13:20:35.412Z,31.72
2019-02-27T13:23:05.579Z,31.90
2019-02-27T13:25:34.956Z,32.08
2019-02-27T13:28:04.363Z,32.43
2019-02-27T13:33:19.750Z,33.07
2019-02-27T13:35:49.080Z,33.16
2019-02-27T13:38:18.707Z,33.33
2019-02-27T13:40:48.055Z,33.66
2019-02-27T13:43:17.386Z,33.96
2019-02-27T13:45:47.605Z,34.22
2019-02-27T13:48:17.426Z,34.44
2019-02-27T13:50:46.993Z,34.69
2019-02-27T13:53:16.564Z,34.85
2019-02-27T13:55:48.254Z,35.08
2019-02-27T13:58:16.953Z,35.28
2019-02-27T14:00:46.292Z,35.44
2019-02-27T14:03:15.622Z,35.59
2019-02-27T14:05:44.964Z,35.85
2019-02-27T14:08:14.359Z,35.88
2019-02-27T14:10:43.690Z,35.82
2019-02-27T14:13:13.992Z,35.77
2019-02-27T14:15:43.317Z,35.69
2019-02-27T14:18:13.525Z,35.56
2019-02-27T14:20:43.661Z,35.29
2019-02-27T14:23:14.570Z,35.09
2019-02-27T14:25:44.008Z,34.69
2019-02-27T14:28:13.341Z,34.23
2019-02-27T14:30:48.198Z,33.60
2019-02-27T14:33:19.269Z,33.24
2019-02-27T14:35:48.551Z,32.78
2019-02-27T14:38:17.881Z,32.55
2019-02-27T14:40:47.451Z,32.35
2019-02-27T14:43:16.774Z,32.14
2019-02-27T14:45:46.331Z,31.33
2019-02-27T14:48:18.170Z,31.30
2019-02-27T14:50:46.687Z,30.90
2019-02-27T14:53:19.034Z,30.56
2019-02-27T14:55:47.265Z,30.16
2019-02-27T14:58:16.587Z,28.58
2019-02-27T15:00:46.151Z,27.80
2019-02-27T15:03:15.726Z,27.94
2019-02-27T15:05:45.371Z,27.91
2019-02-27T15:08:14.658Z,27.68
2019-02-27T15:10:44.049Z,27.42
2019-02-27T15:13:13.614Z,27.21
2019-02-27T15:15:43.753Z,27.00
2019-02-27T15:18:14.121Z,26.55
2019-02-27T15:20:43.423Z,25.92
2019-02-27T15:23:14.377Z,25.64
2019-02-27T15:25:43.704Z,25.48
2019-02-27T15:28:13.042Z,25.28
2019-02-27T15:30:46.315Z,25.19
2019-02-27T15:33:13.865Z,24.89
2019-02-27T15:35:43.255Z,24.80
2019-02-27T15:38:12.595Z,24.72
2019-02-27T15:40:42.086Z,24.57
2019-02-27T15:43:11.771Z,24.41
2019-02-27T15:45:47.274Z,24.30
2019-02-27T15:48:12.247Z,24.27
2019-02-27T15:50:41.584Z,24.09
2019-02-27T15:53:14.622Z,24.00
2019-02-27T15:55:42.183Z,23.96
2019-02-27T15:58:11.510Z,24.01
2019-02-27T16:00:40.912Z,24.12
2019-02-27T16:03:11.832Z,24.17
2019-02-27T16:05:41.342Z,24.18
2019-02-27T16:08:10.731Z,24.01
2019-02-27T16:10:43.713Z,24.01
2019-02-27T16:13:11.102Z,24.00
2019-02-27T16:15:40.661Z,23.98
2019-02-27T16:18:09.991Z,23.96
2019-02-27T16:20:39.327Z,23.88
2019-02-27T16:23:08.656Z,23.85
2019-02-27T16:25:37.990Z,23.74
2019-02-27T16:28:11.133Z,23.43
2019-02-27T16:30:38.640Z,23.37
2019-02-27T16:33:07.970Z,23.15
2019-02-27T16:35:41.575Z,22.96
2019-02-27T16:38:08.578Z,22.68
2019-02-27T16:40:37.902Z,22.48
2019-02-27T16:43:07.232Z,22.33
2019-02-27T16:45:37.975Z,22.16
2019-02-27T16:48:07.392Z,21.96
2019-02-27T16:50:36.716Z,21.71
2019-02-27T16:53:06.051Z,21.47
2019-02-27T16:55:37.457Z,21.23
2019-02-27T16:58:07.647Z,21.01
2019-02-27T17:00:38.551Z,20.67
2019-02-27T17:03:12.801Z,20.53
2019-02-27T17:05:40.376Z,20.35
2019-02-27T17:08:10.002Z,20.08
2019-02-27T17:10:39.961Z,19.76
2019-02-27T17:13:14.666Z,19.45
2019-02-27T17:15:40.416Z,19.12
2019-02-27T17:18:09.760Z,18.79
2019-02-27T17:20:39.336Z,18.51
2019-02-27T17:23:10.952Z,18.25
2019-02-27T17:25:39.698Z,17.89
2019-02-27T17:28:09.024Z,17.61
2019-02-27T17:30:38.418Z,17.33
2019-02-27T17:33:07.762Z,17.08
2019-02-27T17:35:37.087Z,16.79
2019-02-27T17:38:06.463Z,16.50
2019-02-27T17:40:37.599Z,16.26
2019-02-27T17:43:07.198Z,16.00
2019-02-27T17:45:36.772Z,15.79
2019-02-27T17:48:06.127Z,15.58
2019-02-27T17:50:35.458Z,15.34
2019-02-27T17:53:04.880Z,15.16
2019-02-27T17:55:34.193Z,14.97
2019-02-27T17:58:03.758Z,14.82
2019-02-27T18:00:49.975Z,14.67
2019-02-27T18:03:17.942Z,14.51
2019-02-27T18:05:47.275Z,14.35
2019-02-27T18:08:17.223Z,14.22
2019-02-27T18:10:46.587Z,14.01
2019-02-27T18:13:15.926Z,13.75
2019-02-27T18:15:45.251Z,13.52
2019-02-27T18:18:14.583Z,13.34
2019-02-27T18:20:44.168Z,13.17
2019-02-27T18:23:13.506Z,13.03
2019-02-27T18:25:43.062Z,12.88
2019-02-27T18:28:12.388Z,12.78
2019-02-27T18:30:42.717Z,12.78
2019-02-27T18:33:13.953Z,12.74
2019-02-27T18:35:43.222Z,12.69
2019-02-27T18:38:12.556Z,12.63
2019-02-27T18:40:42.779Z,12.54
2019-02-27T18:43:12.192Z,12.42
2019-02-27T18:45:41.526Z,12.32
2019-02-27T18:48:10.876Z,12.25
2019-02-27T18:50:40.209Z,12.14
2019-02-27T18:53:12.938Z,12.05
2019-02-27T18:55:40.590Z,11.96
2019-02-27T18:58:09.925Z,11.85
2019-02-27T19:00:39.265Z,11.77
2019-02-27T19:03:10.241Z,11.68
2019-02-27T19:05:41.824Z,11.63
2019-02-27T19:08:10.602Z,11.58
2019-02-27T19:10:42.431Z,11.51
2019-02-27T19:13:11.137Z,11.44
2019-02-27T19:15:45.427Z,11.39
2019-02-27T19:18:12.022Z,11.35
2019-02-27T19:20:43.784Z,11.28
2019-02-27T19:23:17.193Z,11.20
2019-02-27T19:25:45.598Z,11.14
2019-02-27T19:28:14.980Z,11.09
2019-02-27T19:30:44.341Z,11.04
2019-02-27T19:33:13.653Z,10.99
2019-02-27T19:35:43.023Z,10.96
2019-02-27T19:38:13.073Z,10.92
2019-02-27T19:40:43.171Z,10.84
2019-02-27T19:43:12.737Z,10.76
2019-02-27T19:45:42.485Z,10.73
2019-02-27T19:48:12.870Z,10.67
2019-02-27T19:50:44.866Z,10.62
2019-02-27T19:53:13.295Z,10.53
2019-02-27T19:55:42.753Z,10.50
2019-02-27T19:58:17.246Z,10.46
2019-02-27T20:00:48.500Z,10.44
2019-02-27T20:03:14.578Z,10.36
2019-02-27T20:05:43.908Z,10.30
2019-02-27T20:08:13.243Z,10.25
2019-02-27T20:10:44.161Z,10.21
2019-02-27T20:13:13.876Z,10.14
2019-02-27T20:15:45.672Z,10.08
2019-02-27T20:18:15.016Z,10.04
2019-02-27T20:20:44.414Z,10.01
2019-02-27T20:23:13.821Z,9.98
2019-02-27T20:25:44.370Z,9.94
2019-02-27T20:28:13.845Z,9.91
2019-02-27T20:30:43.466Z,9.88
2019-02-27T20:33:12.950Z,10.01
2019-02-27T20:35:42.265Z,10.07
2019-02-27T20:38:15.476Z,10.25
2019-02-27T20:40:43.021Z,10.41
2019-02-27T20:43:13.317Z,10.65
2019-02-27T20:45:43.535Z,10.87
2019-02-27T20:48:13.203Z,11.00
2019-02-27T20:50:48.508Z,11.12
2019-02-27T20:53:20.936Z,11.25
2019-02-27T20:55:49.145Z,11.35
2019-02-27T20:58:18.840Z,11.31
2019-02-27T21:00:48.519Z,11.18
2019-02-27T21:03:17.854Z,11.04
2019-02-27T21:05:48.586Z,10.91
2019-02-27T21:08:17.918Z,10.92
2019-02-27T21:10:47.367Z,10.92
2019-02-27T21:13:16.963Z,10.88
2019-02-27T21:15:46.368Z,10.84
2019-02-27T21:18:16.213Z,10.77
2019-02-27T21:20:46.224Z,10.68
2019-02-27T21:23:15.889Z,10.59
2019-02-27T21:25:48.768Z,10.49
2019-02-27T21:28:20.962Z,10.32
2019-02-27T21:30:51.910Z,10.21
2019-02-27T21:33:19.038Z,10.09
2019-02-27T21:35:48.417Z,10.01
2019-02-27T21:38:17.777Z,9.88
2019-02-27T21:40:47.239Z,9.77
2019-02-27T21:43:16.565Z,9.68
2019-02-27T21:45:46.008Z,9.62
2019-02-27T21:48:15.693Z,9.53
2019-02-27T21:50:45.357Z,9.43
2019-02-27T21:53:14.718Z,9.32
2019-02-27T21:55:44.916Z,9.24
2019-02-27T21:58:20.298Z,9.16
2019-02-27T22:00:48.125Z,9.07
2019-02-27T22:03:17.008Z,9.00
2019-02-27T22:05:46.980Z,8.90
2019-02-27T22:08:16.438Z,8.81
2019-02-27T22:10:45.841Z,8.77
2019-02-27T22:13:15.329Z,8.69
2019-02-27T22:15:44.774Z,8.68
2019-02-27T22:18:14.199Z,8.59
2019-02-27T22:20:43.536Z,8.50
2019-02-27T22:23:13.557Z,8.45
2019-02-27T22:25:42.921Z,8.36
2019-02-27T22:28:12.245Z,8.31
2019-02-27T22:30:41.807Z,8.25
2019-02-27T22:33:11.136Z,8.24
2019-02-27T22:35:40.470Z,8.14
2019-02-27T22:38:09.792Z,8.08
2019-02-27T22:40:39.238Z,8.02
2019-02-27T22:43:08.769Z,7.95
2019-02-27T22:45:40.577Z,7.87
2019-02-27T22:48:09.119Z,7.83
2019-02-27T22:50:41.230Z,7.80
2019-02-27T22:53:09.477Z,7.77
2019-02-27T22:55:42.263Z,7.71
2019-02-27T22:58:09.832Z,7.67
2019-02-27T23:00:56.550Z,7.65
2019-02-27T23:03:30.956Z,7.60
2019-02-27T23:06:00.361Z,7.56
2019-02-27T23:08:30.665Z,7.48
2019-02-27T23:11:02.950Z,7.43
2019-02-27T23:13:31.914Z,7.42
2019-02-27T23:16:01.267Z,7.39
2019-02-27T23:18:31.370Z,7.36
2019-02-27T23:21:00.764Z,7.40
2019-02-27T23:23:30.060Z,7.35
2019-02-27T23:25:59.620Z,7.36
2019-02-27T23:28:34.528Z,7.34
2019-02-27T23:31:00.955Z,7.26
2019-02-27T23:33:35.873Z,7.23
2019-02-27T23:36:01.682Z,7.20
2019-02-27T23:38:31.013Z,7.16
2019-02-27T23:41:00.342Z,7.14
2019-02-27T23:43:29.667Z,7.09
2019-02-27T23:45:58.999Z,7.09
2019-02-27T23:48:28.716Z,7.06
2019-02-27T23:50:58.045Z,7.04
2019-02-27T23:53:27.839Z,7.03
2019-02-27T23:55:57.184Z,6.97
2019-02-27T23:58:29.487Z,6.97
